Fort Macarthur, California
Current Conditions -  °F | °C
As of 2:53 PM on Thursday 27 Nov 2014 (Local Time) from KLGB Reporting Station
Clear Clear  
Wind Chill: 82°   Ceiling: Unl
Heat Index: 82°   Visibility: 10mi
Dew Point: 36°   Wind: 7mph
Humidity: 19%   Direction: 190°S
Pressure: 29.99"   Gusts: NA
Location:  33.7377°N, 118.291°W
Report Text: KLGB 272253Z 19006KT 10SM CLR 28/02 A2999 RMK AO2 SLP156 T02780022
Loading
Personal Weather Stations






























Interactive Weather Map New forecast layout! Learn more

10-Day Weather Forecast

Advertisements
Track Severe Weather on mobile